Time;durP1;ratioP1;P1;durP2;ratioP2;P2;SDS_P1;SDS_P2;PMS_P1;PMS_P2;Temp;Humidity;BMP_temperature;BMP_pressure;BME280_temperature;BME280_humidity;BME280_pressure;Samples;Min_cycle;Max_cycle;Signal;HPM_P1;HPM_P2
2022/08/07 00:00:12;;;;;;;;;;;;;;;;;;5034058;28;20046;-69
2022/08/07 00:02:39;;;;;;;4.50;3.50;;;;;;;;;;5033597;28;19932;-69
2022/08/07 00:05:10;;;;;;;4.38;3.67;;;;;;;;;;5033450;28;20421;-69
2022/08/07 00:07:37;;;;;;;4.80;3.70;;;;;;;;;;5033697;28;20049;-69
2022/08/07 00:10:07;;;;;;;6.95;3.65;;;;;;;;;;5033518;28;20046;-69
2022/08/07 00:12:52;;;;;;;6.03;3.97;;;;;;;;;;5033411;28;20450;-69
2022/08/07 00:15:25;;;;;;;4.32;3.53;;;;;;;;;;5032589;28;20052;-69
2022/08/07 00:18:12;;;;;;;7.82;3.92;;;;;;;;;;5020206;28;20411;-69
2022/08/07 00:20:45;;;;;;;4.70;4.15;;;;;;;;;;5032245;28;20428;-69
2022/08/07 00:23:13;;;;;;;5.47;4.68;;;;;;;;;;5033500;28;20041;-69
2022/08/07 00:25:42;;;;;;;7.30;4.32;;;;;;;;;;5033311;28;20445;-69
2022/08/07 00:28:17;;;;;;;5.40;4.05;;;;;;;;;;5033142;28;20045;-69
2022/08/07 00:30:47;;;;;;;6.25;4.40;;;;;;;;;;5033465;28;20049;-69
2022/08/07 00:33:14;;;;;;;6.60;4.32;;;;;;;;;;5033317;28;20440;-69
2022/08/07 00:35:40;;;;;;;5.07;4.10;;;;;;;;;;5033012;28;20053;-69
2022/08/07 00:38:14;;;;;;;4.93;4.18;;;;;;;;;;5033229;28;20074;-69
2022/08/07 00:40:40;;;;;;;5.68;4.20;;;;;;;;;;5033250;28;20049;-69
2022/08/07 00:43:09;;;;;;;4.63;3.90;;;;;;;;;;5033220;28;20054;-69
2022/08/07 00:45:56;;;;;;;4.68;4.20;;;;;;;;;;5032754;28;20049;-69
2022/08/07 00:48:23;;;;;;;4.40;3.97;;;;;;;;;;5031977;28;20123;-69
2022/08/07 00:50:57;;;;;;;4.70;4.00;;;;;;;;;;5033082;28;20052;-69
2022/08/07 00:53:25;;;;;;;6.45;4.38;;;;;;;;;;5032734;28;20128;-69
2022/08/07 00:55:51;;;;;;;5.10;3.88;;;;;;;;;;5032736;28;20077;-69
2022/08/07 00:58:28;;;;;;;6.55;4.07;;;;;;;;;;5032648;28;20096;-69
2022/08/07 01:00:55;;;;;;;5.47;4.22;;;;;;;;;;5032994;28;20092;-69
2022/08/07 01:03:21;;;;;;;5.43;4.20;;;;;;;;;;5032786;28;20053;-69
2022/08/07 01:06:08;;;;;;;5.60;3.83;;;;;;;;;;5032293;28;20060;-69
2022/08/07 01:08:38;;;;;;;6.13;4.40;;;;;;;;;;5032374;28;20046;-69
2022/08/07 01:11:19;;;;;;;5.30;3.70;;;;;;;;;;5032634;28;20045;-69
2022/08/07 01:14:06;;;;;;;4.82;3.38;;;;;;;;;;5032288;28;20041;-69
2022/08/07 01:16:35;;;;;;;4.30;3.80;;;;;;;;;;5032387;28;20121;-69
2022/08/07 01:19:02;;;;;;;4.85;3.72;;;;;;;;;;5032357;28;20045;-69
2022/08/07 01:21:29;;;;;;;4.25;3.50;;;;;;;;;;5032148;28;20088;-69
2022/08/07 01:23:56;;;;;;;5.03;3.40;;;;;;;;;;5032063;28;20574;-69
2022/08/07 01:26:23;;;;;;;7.63;4.07;;;;;;;;;;5032166;28;20092;-69
2022/08/07 01:28:52;;;;;;;6.15;4.05;;;;;;;;;;5032081;28;20527;-69
2022/08/07 01:31:19;;;;;;;4.00;3.55;;;;;;;;;;5032189;28;20053;-69
2022/08/07 01:33:46;;;;;;;5.55;3.25;;;;;;;;;;5031935;28;20073;-69
2022/08/07 01:36:22;;;;;;;6.47;3.72;;;;;;;;;;5032001;28;20416;-69
2022/08/07 01:39:01;;;;;;;4.18;3.67;;;;;;;;;;5032267;28;20061;-69
2022/08/07 01:41:36;;;;;;;3.47;3.17;;;;;;;;;;5032175;28;20057;-69
2022/08/07 01:44:04;;;;;;;5.45;4.13;;;;;;;;;;5031870;28;20057;-69
2022/08/07 01:46:30;;;;;;;6.15;3.58;;;;;;;;;;5032052;28;20436;-69
2022/08/07 01:48:57;;;;;;;4.72;3.45;;;;;;;;;;5030568;28;20083;-69
2022/08/07 01:51:25;;;;;;;5.32;3.25;;;;;;;;;;5032042;28;20088;-69
2022/08/07 01:54:13;;;;;;;6.75;3.25;;;;;;;;;;5031679;28;20041;-70
2022/08/07 01:57:02;;;;;;;3.40;3.10;;;;;;;;;;5031628;28;20053;-69
2022/08/07 01:59:32;;;;;;;5.93;3.67;;;;;;;;;;5031351;28;20046;-70
2022/08/07 02:02:04;;;;;;;5.40;3.47;;;;;;;;;;5031579;28;20504;-70
2022/08/07 02:04:43;;;;;;;3.00;2.70;;;;;;;;;;5031409;28;20165;-70
2022/08/07 02:07:24;;;;;;;2.75;2.50;;;;;;;;;;5031639;28;20056;-70
2022/08/07 02:10:11;;;;;;;3.22;2.78;;;;;;;;;;5031989;28;20041;-69
2022/08/07 02:12:41;;;;;;;2.90;2.50;;;;;;;;;;5031810;28;20124;-69
2022/08/07 02:15:12;;;;;;;2.83;2.50;;;;;;;;;;5031500;28;20515;-69
2022/08/07 02:17:39;;;;;;;;;;;;;;;;;;5031849;28;20077;-70
2022/08/07 02:20:07;;;;;;;4.53;2.67;;;;;;;;;;5031752;28;19963;-70
2022/08/07 02:22:45;;;;;;;2.90;2.70;;;;;;;;;;5031390;28;20045;-70
2022/08/07 02:25:19;;;;;;;4.30;2.85;;;;;;;;;;5031609;28;20049;-70
2022/08/07 02:28:06;;;;;;;4.50;2.53;;;;;;;;;;5031642;28;20059;-69
2022/08/07 02:30:37;;;;;;;3.30;2.50;;;;;;;;;;5031554;28;20135;-69
2022/08/07 02:33:04;;;;;;;2.50;2.30;;;;;;;;;;5031654;28;20091;-69
2022/08/07 02:35:36;;;;;;;3.03;2.40;;;;;;;;;;5031286;28;20045;-70
2022/08/07 02:38:25;;;;;;;2.70;2.50;;;;;;;;;;5031467;28;20061;-70
2022/08/07 02:40:57;;;;;;;2.53;2.30;;;;;;;;;;5031244;28;20104;-70
2022/08/07 02:43:25;;;;;;;3.53;2.15;;;;;;;;;;5031567;28;20053;-70
2022/08/07 02:45:53;;;;;;;2.75;2.20;;;;;;;;;;5031535;28;20481;-70
2022/08/07 02:48:27;;;;;;;2.20;2.00;;;;;;;;;;5031489;28;20085;-70
2022/08/07 02:50:54;;;;;;;6.00;2.63;;;;;;;;;;5030240;28;20119;-70
2022/08/07 02:53:22;;;;;;;2.88;2.30;;;;;;;;;;5031214;28;20049;-70
2022/08/07 02:55:54;;;;;;;3.00;2.67;;;;;;;;;;5031112;28;20085;-70
2022/08/07 02:58:32;;;;;;;2.90;2.22;;;;;;;;;;5031377;28;20046;-70
2022/08/07 03:01:00;;;;;;;2.88;2.40;;;;;;;;;;5031349;28;20053;-70
2022/08/07 03:03:30;;;;;;;2.42;1.90;;;;;;;;;;5031037;28;20472;-70
2022/08/07 03:06:17;;;;;;;3.05;2.15;;;;;;;;;;5031020;28;20493;-70
2022/08/07 03:08:57;;;;;;;3.25;2.53;;;;;;;;;;5031023;28;20497;-70
2022/08/07 03:11:25;;;;;;;3.60;1.95;;;;;;;;;;5032523;28;20049;-70
2022/08/07 03:13:54;;;;;;;4.13;2.25;;;;;;;;;;5034872;28;20066;-70
2022/08/07 03:16:27;;;;;;;2.88;2.00;;;;;;;;;;5034814;28;20473;-70
2022/08/07 03:18:56;;;;;;;3.03;2.42;;;;;;;;;;5034791;28;20107;-70
2022/08/07 03:21:23;;;;;;;2.42;1.90;;;;;;;;;;5034793;28;20042;-70
2022/08/07 03:23:52;;;;;;;2.75;2.38;;;;;;;;;;5034450;28;20108;-69
2022/08/07 03:26:39;;;;;;;2.50;2.00;;;;;;;;;;5034900;28;20484;-69
2022/08/07 03:29:24;;;;;;;3.45;2.00;;;;;;;;;;5034625;28;20076;-70
2022/08/07 03:31:53;;;;;;;2.53;2.28;;;;;;;;;;5034346;28;20053;-70
2022/08/07 03:34:21;;;;;;;3.83;2.28;;;;;;;;;;5034491;28;20045;-70
2022/08/07 03:36:53;;;;;;;4.03;2.30;;;;;;;;;;5034183;28;20129;-70
2022/08/07 03:39:21;;;;;;;2.83;2.20;;;;;;;;;;5034401;28;20084;-70
2022/08/07 03:42:08;;;;;;;2.30;1.77;;;;;;;;;;5034233;28;20072;-70
2022/08/07 03:44:35;;;;;;;2.90;1.73;;;;;;;;;;5034223;28;20119;-67
2022/08/07 03:47:02;;;;;;;4.70;2.10;;;;;;;;;;5034281;28;20145;-67
2022/08/07 03:49:41;;;;;;;3.38;2.45;;;;;;;;;;5033914;28;20052;-67
2022/08/07 03:52:14;;;;;;;2.58;1.70;;;;;;;;;;5034128;28;20103;-67
2022/08/07 03:54:53;;;;;;;5.70;2.65;;;;;;;;;;5033859;28;20535;-67
2022/08/07 03:57:32;;;;;;;4.07;2.58;;;;;;;;;;5033920;28;20045;-67
2022/08/07 04:00:19;;;;;;;2.75;2.53;;;;;;;;;;5033852;28;20050;-67
2022/08/07 04:02:46;;;;;;;2.15;1.95;;;;;;;;;;5034290;28;20127;-67
2022/08/07 04:05:14;;;;;;;2.88;2.00;;;;;;;;;;5033857;28;20049;-67
2022/08/07 04:07:47;;;;;;;2.83;2.35;;;;;;;;;;5034350;28;20053;-67
2022/08/07 04:10:14;;;;;;;2.67;2.47;;;;;;;;;;5033537;28;20515;-67
2022/08/07 04:12:45;;;;;;;2.78;2.53;;;;;;;;;;5033477;28;20049;-68
2022/08/07 04:15:14;;;;;;;3.50;2.30;;;;;;;;;;5034029;28;20132;-68
2022/08/07 04:17:42;;;;;;;3.20;2.85;;;;;;;;;;5033586;28;20049;-67
2022/08/07 04:20:28;;;;;;;4.38;2.80;;;;;;;;;;5033240;28;20045;-67
2022/08/07 04:22:57;;;;;;;2.85;2.65;;;;;;;;;;5033362;28;20045;-68
2022/08/07 04:25:31;;;;;;;3.95;3.00;;;;;;;;;;5033542;28;20041;-67
2022/08/07 04:28:05;;;;;;;3.13;2.70;;;;;;;;;;5033366;28;20057;-67
2022/08/07 04:30:34;;;;;;;3.00;2.67;;;;;;;;;;5033384;28;20104;-67
2022/08/07 04:33:21;;;;;;;3.10;2.80;;;;;;;;;;5033097;28;20053;-67
2022/08/07 04:35:48;;;;;;;;;;;;;;;;;;5033350;28;20080;-67
2022/08/07 04:38:16;;;;;;;3.45;2.70;;;;;;;;;;5032928;28;20369;-66
2022/08/07 04:40:43;;;;;;;4.68;2.78;;;;;;;;;;5032925;28;20528;-67
2022/08/07 04:43:20;;;;;;;3.22;2.53;;;;;;;;;;5033265;28;20378;-67
2022/08/07 04:46:09;;;;;;;3.08;2.78;;;;;;;;;;5032829;28;20049;-67
2022/08/07 04:48:56;;;;;;;4.55;2.70;;;;;;;;;;5032792;28;20493;-67
2022/08/07 04:51:36;;;;;;;4.78;2.90;;;;;;;;;;5032810;28;20145;-67
2022/08/07 04:54:15;;;;;;;2.80;2.50;;;;;;;;;;5032986;28;20080;-67
2022/08/07 04:56:46;;;;;;;3.70;2.50;;;;;;;;;;5032918;28;20085;-67
2022/08/07 04:59:38;;;;;;;3.53;2.60;;;;;;;;;;5032624;28;20278;-67
2022/08/07 05:02:43;;;;;;;4.03;3.20;;;;;;;;;;5032507;28;20497;-67
2022/08/07 05:05:21;;;;;;;3.42;2.70;;;;;;;;;;5032777;28;20412;-67
2022/08/07 05:08:19;;;;;;;3.40;2.80;;;;;;;;;;5032679;28;20053;-67
2022/08/07 05:11:35;;;;;;;2.90;2.70;;;;;;;;;;5032613;28;20059;-67
2022/08/07 05:14:26;;;;;;;2.85;2.53;;;;;;;;;;5032415;28;20065;-67
2022/08/07 05:17:14;;;;;;;3.25;2.65;;;;;;;;;;5032353;28;20046;-67
2022/08/07 05:20:01;;;;;;;3.88;2.88;;;;;;;;;;5032444;28;20051;-67
2022/08/07 05:22:36;;;;;;;4.95;3.00;;;;;;;;;;5032411;28;20049;-67
2022/08/07 05:25:02;;;;;;;3.53;2.75;;;;;;;;;;5032206;28;20080;-67
2022/08/07 05:27:37;;;;;;;5.18;3.50;;;;;;;;;;5032420;28;20076;-68
2022/08/07 05:30:24;;;;;;;8.23;7.00;;;;;;;;;;5031227;28;20057;-67
2022/08/07 05:32:59;;;;;;;8.57;7.10;;;;;;;;;;5032076;28;20057;-67
2022/08/07 05:35:30;;;;;;;8.45;7.65;;;;;;;;;;5031858;28;20049;-67
2022/08/07 05:37:59;;;;;;;6.93;5.65;;;;;;;;;;5031957;28;20046;-67
2022/08/07 05:40:36;;;;;;;6.10;5.35;;;;;;;;;;5032128;28;20050;-67
2022/08/07 05:43:16;;;;;;;5.82;4.30;;;;;;;;;;5032171;28;20049;-68
2022/08/07 05:45:45;;;;;;;5.30;4.32;;;;;;;;;;5031753;28;20080;-67
2022/08/07 05:48:14;;;;;;;6.75;4.18;;;;;;;;;;5031849;28;20604;-68
2022/08/07 05:50:42;;;;;;;4.72;3.90;;;;;;;;;;5031915;28;20136;-67
2022/08/07 05:53:09;;;;;;;7.47;4.70;;;;;;;;;;5032040;28;20076;-68
2022/08/07 05:55:56;;;;;;;6.30;4.68;;;;;;;;;;5031958;28;20053;-67
2022/08/07 05:58:29;;;;;;;5.70;4.22;;;;;;;;;;5031839;28;20045;-67
2022/08/07 06:01:02;;;;;;;4.38;3.97;;;;;;;;;;5032016;28;20053;-67
2022/08/07 06:03:31;;;;;;;5.20;3.70;;;;;;;;;;5031346;28;20056;-67
2022/08/07 06:06:18;;;;;;;4.22;3.83;;;;;;;;;;5031480;28;20050;-67
2022/08/07 06:08:45;;;;;;;4.55;3.88;;;;;;;;;;5031823;28;20115;-67
2022/08/07 06:11:16;;;;;;;5.53;4.13;;;;;;;;;;5031527;28;20570;-67
2022/08/07 06:13:46;;;;;;;3.95;3.60;;;;;;;;;;5031670;28;20056;-67
2022/08/07 06:16:33;;;;;;;4.60;4.10;;;;;;;;;;5031687;28;20060;-67
2022/08/07 06:19:01;;;;;;;6.82;3.47;;;;;;;;;;5031970;28;20330;-67
2022/08/07 06:21:32;;;;;;;4.63;3.38;;;;;;;;;;5031527;28;20049;-68
2022/08/07 06:24:18;;;;;;;3.65;2.92;;;;;;;;;;5031675;28;20399;-67
2022/08/07 06:27:05;;;;;;;5.00;3.40;;;;;;;;;;5031640;28;20060;-67
2022/08/07 06:29:33;;;;;;;3.10;2.85;;;;;;;;;;5031705;28;20152;-68
2022/08/07 06:32:04;;;;;;;5.13;2.80;;;;;;;;;;5031347;28;20050;-67
2022/08/07 06:34:30;;;;;;;2.55;2.35;;;;;;;;;;5031340;28;20111;-67
2022/08/07 06:36:57;;;;;;;2.30;2.10;;;;;;;;;;5031146;28;20421;-68
2022/08/07 06:39:23;;;;;;;3.00;2.10;;;;;;;;;;5031549;28;20045;-67
2022/08/07 06:42:12;;;;;;;2.50;2.30;;;;;;;;;;5031508;28;20088;-67
2022/08/07 06:44:39;;;;;;;3.35;2.50;;;;;;;;;;5031544;28;20099;-67
2022/08/07 06:47:06;;;;;;;3.63;2.88;;;;;;;;;;5034064;28;20080;-67
2022/08/07 06:49:36;;;;;;;3.53;2.60;;;;;;;;;;5035364;28;20201;-67
2022/08/07 06:52:19;;;;;;;3.33;2.38;;;;;;;;;;5035117;28;20086;-67
2022/08/07 06:55:02;;;;;;;3.00;2.50;;;;;;;;;;5035045;28;20049;-67
2022/08/07 06:57:49;;;;;;;2.63;2.13;;;;;;;;;;5034880;28;20057;-67
2022/08/07 07:00:22;;;;;;;3.83;2.58;;;;;;;;;;5035188;28;20069;-67
2022/08/07 07:02:49;;;;;;;2.77;1.80;;;;;;;;;;5034988;28;20049;-67
2022/08/07 07:05:23;;;;;;;2.33;2.13;;;;;;;;;;5035152;28;20313;-67
2022/08/07 07:08:11;;;;;;;1.77;1.65;;;;;;;;;;5034676;28;20053;-67
2022/08/07 07:10:51;;;;;;;4.43;1.95;;;;;;;;;;5035032;28;20095;-67
2022/08/07 07:13:29;;;;;;;1.98;1.58;;;;;;;;;;5034682;28;20050;-67
2022/08/07 07:16:17;;;;;;;1.50;1.40;;;;;;;;;;5034766;28;20061;-67
2022/08/07 07:18:48;;;;;;;1.60;1.30;;;;;;;;;;5034629;28;20086;-68
2022/08/07 07:21:20;;;;;;;3.22;1.60;;;;;;;;;;5035108;28;20060;-67
2022/08/07 07:23:53;;;;;;;1.52;1.00;;;;;;;;;;5033188;28;20053;-67
2022/08/07 07:26:38;;;;;;;2.70;0.98;;;;;;;;;;5034343;28;20512;-67
2022/08/07 07:29:09;;;;;;;1.10;1.00;;;;;;;;;;5034350;28;20506;-67
2022/08/07 07:31:56;;;;;;;1.33;1.13;;;;;;;;;;5034144;28;20057;-67
2022/08/07 07:34:27;;;;;;;2.17;0.95;;;;;;;;;;5034342;28;20057;-67
2022/08/07 07:36:59;;;;;;;1.17;1.02;;;;;;;;;;5034134;28;20179;-67
2022/08/07 07:39:46;;;;;;;2.97;1.10;;;;;;;;;;5034095;28;20064;-67
2022/08/07 07:42:20;;;;;;;1.52;0.95;;;;;;;;;;5034042;28;20128;-68
2022/08/07 07:44:59;;;;;;;1.27;1.02;;;;;;;;;;5034106;28;20571;-67
2022/08/07 07:47:26;;;;;;;1.00;0.70;;;;;;;;;;5034102;28;20413;-67
2022/08/07 07:49:53;;;;;;;1.83;0.68;;;;;;;;;;5033815;28;20497;-68
2022/08/07 07:52:40;;;;;;;3.85;0.90;;;;;;;;;;5034040;28;20512;-67
2022/08/07 07:55:08;;;;;;;1.02;0.60;;;;;;;;;;5033935;28;20509;-67
2022/08/07 07:57:37;;;;;;;1.10;0.70;;;;;;;;;;5033649;28;20050;-67
2022/08/07 08:00:19;;;;;;;0.77;0.60;;;;;;;;;;5033951;28;20049;-67
2022/08/07 08:03:08;;;;;;;2.03;0.70;;;;;;;;;;5033798;28;20133;-68
2022/08/07 08:05:42;;;;;;;0.60;0.50;;;;;;;;;;5033600;28;20069;-68
2022/08/07 08:08:22;;;;;;;1.00;0.55;;;;;;;;;;5033513;28;20138;-68
2022/08/07 08:11:06;;;;;;;0.50;0.50;;;;;;;;;;5033562;28;20045;-69
2022/08/07 08:13:35;;;;;;;1.00;0.38;;;;;;;;;;5033520;28;20573;-68
2022/08/07 08:16:21;;;;;;;1.48;0.60;;;;;;;;;;5033597;28;20049;-68
2022/08/07 08:19:13;;;;;;;1.85;0.40;;;;;;;;;;5033337;28;20049;-68
2022/08/07 08:27:52;;;;;;;0.75;0.50;;;;;;;;;;5032931;28;20060;-69
2022/08/07 08:30:23;;;;;;;0.95;0.40;;;;;;;;;;5032989;28;20075;-70
2022/08/07 08:32:55;;;;;;;0.70;0.47;;;;;;;;;;5033486;28;20045;-70
2022/08/07 08:35:22;;;;;;;1.00;0.57;;;;;;;;;;5033292;28;20045;-68
2022/08/07 08:37:56;;;;;;;1.42;0.60;;;;;;;;;;5033021;28;20409;-69
2022/08/07 08:40:31;;;;;;;1.42;0.50;;;;;;;;;;5033313;28;20053;-69
2022/08/07 08:43:03;;;;;;;0.77;0.57;;;;;;;;;;5032987;28;20041;-65
2022/08/07 08:45:43;;;;;;;1.88;0.80;;;;;;;;;;5033205;28;20104;-65
2022/08/07 08:48:32;;;;;;;0.73;0.70;;;;;;;;;;5033108;28;20057;-65
2022/08/07 08:51:09;;;;;;;0.60;0.50;;;;;;;;;;5032657;28;20128;-65
2022/08/07 08:53:56;;;;;;;1.42;0.40;;;;;;;;;;5030038;28;20107;-65
2022/08/07 08:56:27;;;;;;;0.45;0.40;;;;;;;;;;5031913;28;20049;-65
2022/08/07 08:59:00;;;;;;;1.70;0.57;;;;;;;;;;5021550;28;20120;-66
2022/08/07 09:01:40;;;;;;;1.23;0.40;;;;;;;;;;5029679;28;20042;-66
2022/08/07 09:04:33;;;;;;;0.90;0.60;;;;;;;;;;5031314;28;20046;-66
2022/08/07 09:07:02;;;;;;;1.55;0.50;;;;;;;;;;5032101;28;20073;-66
2022/08/07 09:09:35;;;;;;;0.80;0.50;;;;;;;;;;5031030;28;20052;-66
2022/08/07 09:12:08;;;;;;;0.70;0.50;;;;;;;;;;5029913;28;20042;-67
2022/08/07 09:15:14;;;;;;;1.60;0.55;;;;;;;;;;5031773;28;20049;-68
2022/08/07 09:18:20;;;;;;;1.88;0.70;;;;;;;;;;5031978;28;20052;-68
2022/08/07 09:21:04;;;;;;;1.58;0.73;;;;;;;;;;5032068;28;20096;-67
2022/08/07 09:23:45;;;;;;;1.27;0.52;;;;;;;;;;5030987;28;20092;-67
2022/08/07 09:26:49;;;;;;;1.55;0.73;;;;;;;;;;5032158;28;20045;-67
2022/08/07 09:29:20;;;;;;;0.97;0.80;;;;;;;;;;5032511;28;20049;-67
2022/08/07 09:32:10;;;;;;;1.88;0.80;;;;;;;;;;5031986;28;20805;-68
2022/08/07 09:34:53;;;;;;;2.63;0.80;;;;;;;;;;5032300;28;20092;-68
2022/08/07 09:37:22;;;;;;;1.63;0.80;;;;;;;;;;5031583;28;20087;-68
2022/08/07 09:40:20;;;;;;;1.58;0.85;;;;;;;;;;5031880;28;20511;-69
2022/08/07 09:43:04;;;;;;;0.95;0.70;;;;;;;;;;5032189;28;20386;-67
2022/08/07 09:45:33;;;;;;;1.17;0.90;;;;;;;;;;5032141;28;20049;-68
2022/08/07 09:48:25;;;;;;;3.88;0.85;;;;;;;;;;5031444;28;20147;-69
2022/08/07 09:51:22;;;;;;;2.03;1.00;;;;;;;;;;5031170;28;20061;-67
2022/08/07 09:54:18;;;;;;;1.15;0.90;;;;;;;;;;5031457;28;20051;-67
2022/08/07 09:57:20;;;;;;;1.95;0.80;;;;;;;;;;5029780;28;20462;-67
2022/08/07 09:59:49;;;;;;;0.80;0.65;;;;;;;;;;5031889;28;20046;-67
2022/08/07 10:02:36;;;;;;;3.50;1.02;;;;;;;;;;5031605;28;20571;-66
2022/08/07 10:05:05;;;;;;;1.52;0.70;;;;;;;;;;5031600;28;20089;-67
2022/08/07 10:07:45;;;;;;;2.08;0.82;;;;;;;;;;5031901;28;20046;-67
2022/08/07 10:10:27;;;;;;;1.95;0.75;;;;;;;;;;5031729;28;20049;-67
2022/08/07 10:13:14;;;;;;;1.73;0.70;;;;;;;;;;5031839;28;20119;-67
2022/08/07 10:16:06;;;;;;;1.73;0.90;;;;;;;;;;5031391;28;20490;-66
2022/08/07 10:18:51;;;;;;;3.72;0.90;;;;;;;;;;5031402;28;20046;-67
2022/08/07 10:21:37;;;;;;;1.33;0.70;;;;;;;;;;5031625;28;20073;-67
2022/08/07 10:24:44;;;;;;;0.85;0.73;;;;;;;;;;5031175;28;20056;-68
2022/08/07 10:27:25;;;;;;;1.23;0.70;;;;;;;;;;5035049;28;20049;-68
2022/08/07 10:29:55;;;;;;;1.20;0.88;;;;;;;;;;5035457;28;20489;-68
2022/08/07 10:32:43;;;;;;;1.35;0.88;;;;;;;;;;5034766;28;20080;-68
2022/08/07 10:35:28;;;;;;;1.67;0.82;;;;;;;;;;5035521;28;20132;-67
2022/08/07 10:38:43;;;;;;;1.27;0.90;;;;;;;;;;5035069;28;20048;-66
2022/08/07 10:41:20;;;;;;;1.17;0.77;;;;;;;;;;5032372;28;20480;-67
2022/08/07 10:44:12;;;;;;;1.45;0.70;;;;;;;;;;5035180;28;20079;-66
2022/08/07 10:47:08;;;;;;;1.08;0.80;;;;;;;;;;5034663;28;20428;-67
2022/08/07 10:49:43;;;;;;;0.95;0.90;;;;;;;;;;5032957;28;20103;-66
2022/08/07 10:52:35;;;;;;;1.15;0.73;;;;;;;;;;5035385;28;20049;-66
2022/08/07 10:55:20;;;;;;;2.88;0.88;;;;;;;;;;5035027;28;20559;-66
2022/08/07 10:58:21;;;;;;;1.63;0.82;;;;;;;;;;5035222;28;20088;-69
2022/08/07 11:01:16;;;;;;;3.17;0.90;;;;;;;;;;5034860;28;20409;-66
2022/08/07 11:03:54;;;;;;;0.82;0.80;;;;;;;;;;5034533;28;20494;-68
2022/08/07 11:06:43;;;;;;;0.60;0.60;;;;;;;;;;5031946;28;20048;-67
2022/08/07 11:09:17;;;;;;;2.30;0.80;;;;;;;;;;5034613;28;20072;-67
2022/08/07 11:12:07;;;;;;;1.53;0.90;;;;;;;;;;5032692;28;20053;-66
2022/08/07 11:14:37;;;;;;;1.65;0.75;;;;;;;;;;5034383;28;20275;-68
2022/08/07 11:17:25;;;;;;;3.47;0.70;;;;;;;;;;5034993;28;20081;-66
2022/08/07 11:20:22;;;;;;;1.50;0.73;;;;;;;;;;5034839;28;20417;-66
2022/08/07 11:22:59;;;;;;;0.77;0.60;;;;;;;;;;5035001;28;20107;-65
2022/08/07 11:25:37;;;;;;;1.15;0.63;;;;;;;;;;5034380;28;20049;-65
2022/08/07 11:28:18;;;;;;;2.03;0.68;;;;;;;;;;5034681;28;20046;-64
2022/08/07 11:30:51;;;;;;;1.70;0.68;;;;;;;;;;5034528;28;20049;-64
2022/08/07 11:33:23;;;;;;;1.30;0.75;;;;;;;;;;5033603;28;20057;-64
2022/08/07 11:36:15;;;;;;;1.63;0.70;;;;;;;;;;5033731;28;20413;-62
2022/08/07 11:38:56;;;;;;;2.00;0.75;;;;;;;;;;5033841;28;20404;-63
2022/08/07 11:41:27;;;;;;;1.85;0.70;;;;;;;;;;5033779;28;20050;-62
2022/08/07 11:44:27;;;;;;;2.00;0.77;;;;;;;;;;5034245;28;20049;-64
2022/08/07 11:46:55;;;;;;;0.55;0.45;;;;;;;;;;5034271;28;20053;-63
2022/08/07 11:49:28;;;;;;;0.88;0.60;;;;;;;;;;5034293;28;20088;-63
2022/08/07 11:52:46;;;;;;;2.10;0.70;;;;;;;;;;5033949;28;20136;-63
2022/08/07 11:55:20;;;;;;;1.83;0.63;;;;;;;;;;5032588;28;20049;-63
2022/08/07 11:58:13;;;;;;;0.65;0.60;;;;;;;;;;5032723;28;20062;-64
2022/08/07 12:00:54;;;;;;;0.90;0.60;;;;;;;;;;5030316;28;20049;-64
2022/08/07 12:03:32;;;;;;;2.92;0.70;;;;;;;;;;5030343;28;20044;-66
2022/08/07 12:06:29;;;;;;;0.85;0.73;;;;;;;;;;5030799;28;20037;-65
2022/08/07 12:09:23;;;;;;;2.03;0.70;;;;;;;;;;5031267;28;20105;-64
2022/08/07 12:11:53;;;;;;;1.25;0.70;;;;;;;;;;5032130;28;20053;-65
2022/08/07 12:14:54;;;;;;;1.40;0.55;;;;;;;;;;5031090;28;20100;-64
2022/08/07 12:17:46;;;;;;;0.75;0.57;;;;;;;;;;5030318;28;20050;-65
2022/08/07 12:20:29;;;;;;;0.50;0.40;;;;;;;;;;5031550;28;20141;-65
2022/08/07 12:23:12;;;;;;;0.50;0.40;;;;;;;;;;5031981;28;20124;-65
2022/08/07 12:25:54;;;;;;;0.95;0.80;;;;;;;;;;5031634;28;20080;-65
2022/08/07 12:28:44;;;;;;;1.08;0.50;;;;;;;;;;5029891;28;20049;-67
2022/08/07 12:31:23;;;;;;;0.63;0.40;;;;;;;;;;5031024;28;20061;-67
2022/08/07 12:33:51;;;;;;;1.50;0.30;;;;;;;;;;5032883;28;20457;-67
2022/08/07 12:36:28;;;;;;;2.08;0.70;;;;;;;;;;5031246;28;20061;-68
2022/08/07 12:39:00;;;;;;;0.60;0.60;;;;;;;;;;5033285;28;20408;-67
2022/08/07 12:41:28;;;;;;;0.40;0.40;;;;;;;;;;5032932;28;20065;-67
2022/08/07 12:44:15;;;;;;;0.45;0.40;;;;;;;;;;5032197;28;20052;-68
2022/08/07 12:47:01;;;;;;;0.93;0.73;;;;;;;;;;5032943;28;20045;-68
2022/08/07 12:49:31;;;;;;;1.58;0.60;;;;;;;;;;5031365;28;20110;-67
2022/08/07 12:52:22;;;;;;;2.45;0.60;;;;;;;;;;5029051;28;20053;-66
2022/08/07 12:55:02;;;;;;;1.13;0.40;;;;;;;;;;5032541;28;20061;-67
2022/08/07 12:57:36;;;;;;;1.83;0.60;;;;;;;;;;5032560;28;20180;-68
2022/08/07 13:00:38;;;;;;;1.85;0.63;;;;;;;;;;5032099;28;20052;-68
2022/08/07 13:03:29;;;;;;;0.60;0.40;;;;;;;;;;5030899;28;20049;-65
2022/08/07 13:06:19;;;;;;;1.63;0.50;;;;;;;;;;5032136;28;20145;-66
2022/08/07 13:09:16;;;;;;;1.20;0.57;;;;;;;;;;5032279;28;20049;-69
2022/08/07 13:12:10;;;;;;;1.33;0.50;;;;;;;;;;5032080;28;20055;-68
2022/08/07 13:14:40;;;;;;;0.60;0.43;;;;;;;;;;5032069;28;20049;-64
2022/08/07 13:17:19;;;;;;;1.15;0.55;;;;;;;;;;5019065;28;20485;-66
2022/08/07 13:20:15;;;;;;;1.90;0.50;;;;;;;;;;5031726;28;20049;-66
2022/08/07 13:22:42;;;;;;;1.15;0.55;;;;;;;;;;5029107;28;20041;-67
2022/08/07 13:25:33;;;;;;;1.95;0.50;;;;;;;;;;5029557;28;20056;-66
2022/08/07 13:28:02;;;;;;;1.77;0.70;;;;;;;;;;5030498;28;20099;-65
2022/08/07 13:30:41;;;;;;;0.52;0.52;;;;;;;;;;5031102;28;20436;-67
2022/08/07 13:33:25;;;;;;;0.82;0.70;;;;;;;;;;5030671;28;20057;-66
2022/08/07 13:36:31;;;;;;;1.00;0.60;;;;;;;;;;5031722;28;20122;-65
2022/08/07 13:39:12;;;;;;;1.15;0.60;;;;;;;;;;5031706;28;20080;-67
2022/08/07 13:41:55;;;;;;;1.63;0.60;;;;;;;;;;5031708;28;20053;-68
2022/08/07 13:44:25;;;;;;;1.33;0.40;;;;;;;;;;5029559;28;20045;-67
2022/08/07 13:47:00;;;;;;;1.33;0.63;;;;;;;;;;5031406;28;20132;-67
2022/08/07 13:49:34;;;;;;;1.00;0.50;;;;;;;;;;5031093;28;20137;-67
2022/08/07 13:52:21;;;;;;;1.30;0.80;;;;;;;;;;5031565;28;20143;-68
2022/08/07 13:55:07;;;;;;;1.30;0.88;;;;;;;;;;5031025;28;20087;-68
2022/08/07 13:57:37;;;;;;;0.98;0.57;;;;;;;;;;5031482;28;20081;-68
2022/08/07 14:00:29;;;;;;;1.92;0.80;;;;;;;;;;5029217;28;20045;-67
2022/08/07 14:02:58;;;;;;;1.88;0.88;;;;;;;;;;5031280;28;20067;-66
2022/08/07 14:05:26;;;;;;;0.88;0.60;;;;;;;;;;5031057;28;20053;-67
2022/08/07 14:08:03;;;;;;;0.70;0.52;;;;;;;;;;5031146;28;20048;-67
2022/08/07 14:10:36;;;;;;;2.08;0.50;;;;;;;;;;5031665;28;20132;-69
2022/08/07 14:13:12;;;;;;;1.50;0.50;;;;;;;;;;5031175;28;20460;-68
2022/08/07 14:15:49;;;;;;;1.55;0.60;;;;;;;;;;5031344;28;20052;-68
2022/08/07 14:18:19;;;;;;;1.60;0.50;;;;;;;;;;5031322;28;20167;-66
2022/08/07 14:21:02;;;;;;;2.17;0.65;;;;;;;;;;5031151;28;20501;-66
2022/08/07 14:23:38;;;;;;;0.80;0.55;;;;;;;;;;5031288;28;20128;-67
2022/08/07 14:26:27;;;;;;;1.02;0.50;;;;;;;;;;5030938;28;20053;-66
2022/08/07 14:28:59;;;;;;;0.73;0.30;;;;;;;;;;5031554;28;20053;-68
2022/08/07 14:31:48;;;;;;;0.50;0.45;;;;;;;;;;5031236;28;20050;-68
2022/08/07 14:34:24;;;;;;;0.88;0.47;;;;;;;;;;5031162;28;20124;-68
2022/08/07 14:36:55;;;;;;;1.73;0.70;;;;;;;;;;5030006;28;20132;-69
2022/08/07 14:39:23;;;;;;;0.85;0.60;;;;;;;;;;5030434;28;20493;-69
2022/08/07 14:42:10;;;;;;;1.48;0.40;;;;;;;;;;5029433;28;20053;-67
2022/08/07 14:44:50;;;;;;;1.20;0.50;;;;;;;;;;5028338;28;20049;-66
2022/08/07 14:47:17;;;;;;;1.75;0.50;;;;;;;;;;5031071;28;20087;-66
2022/08/07 14:49:44;;;;;;;1.20;0.38;;;;;;;;;;5028998;28;20561;-66
2022/08/07 14:52:24;;;;;;;0.93;0.30;;;;;;;;;;5022064;28;20558;-67
2022/08/07 14:54:55;;;;;;;0.35;0.20;;;;;;;;;;5030629;28;20045;-66
2022/08/07 14:57:24;;;;;;;1.70;0.35;;;;;;;;;;5023590;28;20060;-69
2022/08/07 15:00:10;;;;;;;1.98;0.40;;;;;;;;;;5030306;28;20046;-68
2022/08/07 15:02:46;;;;;;;0.30;0.30;;;;;;;;;;5029022;28;20037;-68
2022/08/07 15:05:22;;;;;;;1.02;0.30;;;;;;;;;;5027536;28;20052;-66
2022/08/07 15:07:49;;;;;;;0.30;0.30;;;;;;;;;;5028707;28;20131;-64
2022/08/07 15:10:22;;;;;;;0.55;0.30;;;;;;;;;;5030243;28;20057;-63
2022/08/07 15:12:59;;;;;;;0.40;0.30;;;;;;;;;;5034533;28;20115;-64
2022/08/07 15:15:40;;;;;;;1.70;0.50;;;;;;;;;;5034106;28;20053;-64
2022/08/07 15:18:13;;;;;;;1.55;0.40;;;;;;;;;;5034203;28;20057;-65
2022/08/07 15:21:01;;;;;;;0.40;0.30;;;;;;;;;;5034012;28;20056;-65
2022/08/07 15:23:35;;;;;;;1.38;0.30;;;;;;;;;;5033452;28;20099;-69
2022/08/07 15:26:30;;;;;;;0.40;0.40;;;;;;;;;;5032949;28;20045;-65
2022/08/07 15:28:59;;;;;;;1.45;0.50;;;;;;;;;;5033329;28;20520;-64
2022/08/07 15:31:47;;;;;;;1.20;0.60;;;;;;;;;;5032557;28;20082;-65
2022/08/07 15:34:42;;;;;;;0.50;0.40;;;;;;;;;;5033468;28;20452;-64
2022/08/07 15:37:33;;;;;;;1.60;0.80;;;;;;;;;;5032884;28;20042;-67
2022/08/07 15:40:21;;;;;;;0.55;0.50;;;;;;;;;;5033234;28;20053;-66
2022/08/07 15:43:11;;;;;;;1.45;0.60;;;;;;;;;;5029886;28;20045;-67
2022/08/07 15:46:12;;;;;;;0.88;0.60;;;;;;;;;;5032642;28;20523;-65
2022/08/07 15:49:01;;;;;;;0.50;0.50;;;;;;;;;;5033019;28;20417;-64
2022/08/07 15:51:40;;;;;;;3.22;0.70;;;;;;;;;;5030998;28;20057;-64
2022/08/07 15:54:32;;;;;;;1.48;0.60;;;;;;;;;;5030348;28;20489;-68